Main page
Satellite images 10-day forecastsClimateMarine weather Cyclones Lightning AirportsFAQ Newsletter About
Weather : Europe Africa North America South America Asia Australia-Oceania Others
Languages Contact

Singapore, Singapore

Paya Lebar Air Base

latitude: 01-22N, longitude: 103-55E, elevation: 18 m


METAR: WSAP 251000Z 00000KT 9999 FEW015 BKN270 28/25 Q1008 RETS
TAF: WSAP 250800Z 2508/2612 36007KT 9999 FEW015CB SCT020 TEMPO 2606/2610 3000 TSRA FEW012CB BKN015

Time: 18:54 (10:54 UTC)

Current weather observation

The report was made 54 minutes ago, at 10:00 UTC
Calm wind
Temperature 28°C
Humidity 84%
Pressure 1008 hPa
Visibility 10 km or more
Few clouds at a height of 1500 ft
Broken clouds at a height of 27000 ft

Change units

Forecast

The report was made 2 hours and 54 minutes ago, at 08:00 UTC
Forecast valid from 25 at 08 UTC to 26 at 12 UTC
Wind 7 kt from the North
Visibility 10 km or more
Few clouds at a height of 1500 ft, Cumulonimbus.
Scattered clouds at a height of 2000 ft
Temporary
from 26 at 06 UTC to 26 at 10 UTC
Visibility: 3000 m
Few clouds at a height of 1200 ft, Cumulonimbus.
Broken clouds at a height of 1500 ft
thunderstorm, rain
The information on this site is subject to a disclaimer
Weather : Europe Africa North America South America Asia Australia-Oceania Others
Satellite images 10-day forecastsClimateMarine weather Cyclones Lightning AirportsFAQ Languages Contact Newsletter About